sensor_id;sensor_type;location;lat;lon;timestamp;P1;durP1;ratioP1;P2;durP2;ratioP2
68803;SDS011;55787;52.678;13.314;2023-07-24T00:02:14;6.88;;;1.60;;
68803;SDS011;55787;52.678;13.314;2023-07-24T00:04:41;7.85;;;1.90;;
68803;SDS011;55787;52.678;13.314;2023-07-24T00:07:07;7.18;;;1.83;;
68803;SDS011;55787;52.678;13.314;2023-07-24T00:09:34;9.30;;;2.00;;
68803;SDS011;55787;52.678;13.314;2023-07-24T00:12:01;6.47;;;1.70;;
68803;SDS011;55787;52.678;13.314;2023-07-24T00:14:27;7.13;;;1.88;;
68803;SDS011;55787;52.678;13.314;2023-07-24T00:16:54;7.10;;;1.50;;
68803;SDS011;55787;52.678;13.314;2023-07-24T00:19:20;9.65;;;1.90;;
68803;SDS011;55787;52.678;13.314;2023-07-24T00:21:47;8.98;;;1.67;;
68803;SDS011;55787;52.678;13.314;2023-07-24T00:24:14;7.07;;;2.00;;
68803;SDS011;55787;52.678;13.314;2023-07-24T00:26:40;6.90;;;1.75;;
68803;SDS011;55787;52.678;13.314;2023-07-24T00:29:07;8.48;;;1.92;;
68803;SDS011;55787;52.678;13.314;2023-07-24T00:31:34;8.77;;;2.00;;
68803;SDS011;55787;52.678;13.314;2023-07-24T00:34:01;7.30;;;1.90;;
68803;SDS011;55787;52.678;13.314;2023-07-24T00:36:28;7.27;;;1.90;;
68803;SDS011;55787;52.678;13.314;2023-07-24T00:38:55;6.60;;;1.80;;
68803;SDS011;55787;52.678;13.314;2023-07-24T00:41:22;6.78;;;1.75;;
68803;SDS011;55787;52.678;13.314;2023-07-24T00:43:48;7.38;;;1.92;;
68803;SDS011;55787;52.678;13.314;2023-07-24T00:46:15;7.25;;;1.85;;
68803;SDS011;55787;52.678;13.314;2023-07-24T00:48:42;7.33;;;1.70;;
68803;SDS011;55787;52.678;13.314;2023-07-24T00:51:08;7.85;;;1.80;;
68803;SDS011;55787;52.678;13.314;2023-07-24T00:53:36;6.30;;;1.30;;
68803;SDS011;55787;52.678;13.314;2023-07-24T00:56:02;6.10;;;1.30;;
68803;SDS011;55787;52.678;13.314;2023-07-24T00:58:30;5.70;;;1.30;;
68803;SDS011;55787;52.678;13.314;2023-07-24T01:00:57;6.43;;;1.50;;
68803;SDS011;55787;52.678;13.314;2023-07-24T01:03:26;6.72;;;1.40;;
68803;SDS011;55787;52.678;13.314;2023-07-24T01:05:59;5.97;;;1.50;;
68803;SDS011;55787;52.678;13.314;2023-07-24T01:08:27;6.85;;;1.52;;
68803;SDS011;55787;52.678;13.314;2023-07-24T01:10:56;6.50;;;1.20;;
68803;SDS011;55787;52.678;13.314;2023-07-24T01:13:25;7.93;;;1.43;;
68803;SDS011;55787;52.678;13.314;2023-07-24T01:16:14;5.55;;;1.20;;
68803;SDS011;55787;52.678;13.314;2023-07-24T01:18:44;5.97;;;1.50;;
68803;SDS011;55787;52.678;13.314;2023-07-24T01:21:12;5.05;;;1.20;;
68803;SDS011;55787;52.678;13.314;2023-07-24T01:24:03;6.25;;;1.20;;
68803;SDS011;55787;52.678;13.314;2023-07-24T01:26:34;6.07;;;1.10;;
68803;SDS011;55787;52.678;13.314;2023-07-24T01:29:01;5.53;;;1.17;;
68803;SDS011;55787;52.678;13.314;2023-07-24T01:31:28;5.70;;;1.17;;
68803;SDS011;55787;52.678;13.314;2023-07-24T01:33:54;5.40;;;1.10;;
68803;SDS011;55787;52.678;13.314;2023-07-24T01:36:21;6.13;;;1.33;;
68803;SDS011;55787;52.678;13.314;2023-07-24T01:38:49;6.40;;;1.30;;
68803;SDS011;55787;52.678;13.314;2023-07-24T01:41:16;6.68;;;1.42;;
68803;SDS011;55787;52.678;13.314;2023-07-24T01:43:43;6.18;;;1.30;;
68803;SDS011;55787;52.678;13.314;2023-07-24T01:46:10;6.47;;;1.67;;
68803;SDS011;55787;52.678;13.314;2023-07-24T01:48:37;6.25;;;1.40;;
68803;SDS011;55787;52.678;13.314;2023-07-24T01:51:04;5.93;;;1.10;;
68803;SDS011;55787;52.678;13.314;2023-07-24T01:53:30;5.90;;;1.25;;
68803;SDS011;55787;52.678;13.314;2023-07-24T01:55:58;6.18;;;1.20;;
68803;SDS011;55787;52.678;13.314;2023-07-24T01:58:24;6.78;;;1.20;;
68803;SDS011;55787;52.678;13.314;2023-07-24T02:00:51;6.10;;;1.40;;
68803;SDS011;55787;52.678;13.314;2023-07-24T02:03:21;5.67;;;1.10;;
68803;SDS011;55787;52.678;13.314;2023-07-24T02:05:49;6.97;;;1.40;;
68803;SDS011;55787;52.678;13.314;2023-07-24T02:08:17;5.57;;;1.30;;
68803;SDS011;55787;52.678;13.314;2023-07-24T02:10:43;6.85;;;1.23;;
68803;SDS011;55787;52.678;13.314;2023-07-24T02:13:10;7.05;;;1.35;;
68803;SDS011;55787;52.678;13.314;2023-07-24T02:15:37;5.50;;;1.30;;
68803;SDS011;55787;52.678;13.314;2023-07-24T02:18:04;8.18;;;1.33;;
68803;SDS011;55787;52.678;13.314;2023-07-24T02:20:30;6.18;;;1.20;;
68803;SDS011;55787;52.678;13.314;2023-07-24T02:22:57;8.00;;;1.45;;
68803;SDS011;55787;52.678;13.314;2023-07-24T02:25:24;6.32;;;1.33;;
68803;SDS011;55787;52.678;13.314;2023-07-24T02:27:51;5.87;;;1.20;;
68803;SDS011;55787;52.678;13.314;2023-07-24T02:30:18;6.95;;;1.30;;
68803;SDS011;55787;52.678;13.314;2023-07-24T02:32:44;5.93;;;1.30;;
68803;SDS011;55787;52.678;13.314;2023-07-24T02:35:11;6.85;;;1.50;;
68803;SDS011;55787;52.678;13.314;2023-07-24T02:37:38;5.55;;;1.15;;
68803;SDS011;55787;52.678;13.314;2023-07-24T02:40:05;5.87;;;1.17;;
68803;SDS011;55787;52.678;13.314;2023-07-24T02:42:32;5.97;;;1.40;;
68803;SDS011;55787;52.678;13.314;2023-07-24T02:44:59;4.82;;;1.02;;
68803;SDS011;55787;52.678;13.314;2023-07-24T02:47:25;5.38;;;1.05;;
68803;SDS011;55787;52.678;13.314;2023-07-24T02:49:52;6.13;;;1.20;;
68803;SDS011;55787;52.678;13.314;2023-07-24T02:52:19;5.93;;;1.30;;
68803;SDS011;55787;52.678;13.314;2023-07-24T02:54:45;6.28;;;1.23;;
68803;SDS011;55787;52.678;13.314;2023-07-24T02:57:12;6.00;;;1.10;;
68803;SDS011;55787;52.678;13.314;2023-07-24T02:59:39;5.60;;;0.98;;
68803;SDS011;55787;52.678;13.314;2023-07-24T03:02:05;5.57;;;1.02;;
68803;SDS011;55787;52.678;13.314;2023-07-24T03:04:32;5.97;;;1.47;;
68803;SDS011;55787;52.678;13.314;2023-07-24T03:06:59;4.72;;;0.90;;
68803;SDS011;55787;52.678;13.314;2023-07-24T03:09:26;5.05;;;1.00;;
68803;SDS011;55787;52.678;13.314;2023-07-24T03:11:52;5.80;;;1.08;;
68803;SDS011;55787;52.678;13.314;2023-07-24T03:14:19;5.43;;;0.93;;
68803;SDS011;55787;52.678;13.314;2023-07-24T03:16:46;5.90;;;1.10;;
68803;SDS011;55787;52.678;13.314;2023-07-24T03:19:12;5.57;;;0.95;;
68803;SDS011;55787;52.678;13.314;2023-07-24T03:21:39;6.68;;;1.05;;
68803;SDS011;55787;52.678;13.314;2023-07-24T03:24:06;5.60;;;1.17;;
68803;SDS011;55787;52.678;13.314;2023-07-24T03:26:32;5.70;;;1.15;;
68803;SDS011;55787;52.678;13.314;2023-07-24T03:29:00;5.97;;;1.00;;
68803;SDS011;55787;52.678;13.314;2023-07-24T03:31:26;5.70;;;1.13;;
68803;SDS011;55787;52.678;13.314;2023-07-24T03:33:53;5.43;;;1.20;;
68803;SDS011;55787;52.678;13.314;2023-07-24T03:36:20;5.30;;;0.82;;
68803;SDS011;55787;52.678;13.314;2023-07-24T03:38:49;5.80;;;1.20;;
68803;SDS011;55787;52.678;13.314;2023-07-24T03:41:16;5.23;;;0.90;;
68803;SDS011;55787;52.678;13.314;2023-07-24T03:43:43;4.50;;;0.80;;
68803;SDS011;55787;52.678;13.314;2023-07-24T03:46:09;5.60;;;1.10;;
68803;SDS011;55787;52.678;13.314;2023-07-24T03:48:36;6.13;;;1.10;;
68803;SDS011;55787;52.678;13.314;2023-07-24T03:51:03;6.13;;;1.00;;
68803;SDS011;55787;52.678;13.314;2023-07-24T03:53:29;5.50;;;1.00;;
68803;SDS011;55787;52.678;13.314;2023-07-24T03:55:58;5.30;;;0.90;;
68803;SDS011;55787;52.678;13.314;2023-07-24T03:58:25;5.78;;;0.80;;
68803;SDS011;55787;52.678;13.314;2023-07-24T04:00:52;5.63;;;1.00;;
68803;SDS011;55787;52.678;13.314;2023-07-24T04:03:19;4.97;;;0.77;;
68803;SDS011;55787;52.678;13.314;2023-07-24T04:05:45;5.60;;;0.90;;
68803;SDS011;55787;52.678;13.314;2023-07-24T04:08:12;5.25;;;1.00;;
68803;SDS011;55787;52.678;13.314;2023-07-24T04:10:39;6.45;;;1.08;;
68803;SDS011;55787;52.678;13.314;2023-07-24T04:13:05;6.93;;;0.90;;
68803;SDS011;55787;52.678;13.314;2023-07-24T04:15:32;6.30;;;1.20;;
68803;SDS011;55787;52.678;13.314;2023-07-24T04:17:59;5.60;;;1.03;;
68803;SDS011;55787;52.678;13.314;2023-07-24T04:20:26;6.90;;;1.40;;
68803;SDS011;55787;52.678;13.314;2023-07-24T04:22:52;4.82;;;0.80;;
68803;SDS011;55787;52.678;13.314;2023-07-24T04:25:19;6.38;;;1.20;;
68803;SDS011;55787;52.678;13.314;2023-07-24T04:27:47;6.32;;;1.15;;
68803;SDS011;55787;52.678;13.314;2023-07-24T04:30:13;7.47;;;1.50;;
68803;SDS011;55787;52.678;13.314;2023-07-24T04:32:40;6.75;;;1.20;;
68803;SDS011;55787;52.678;13.314;2023-07-24T04:35:07;6.20;;;1.50;;
68803;SDS011;55787;52.678;13.314;2023-07-24T04:37:34;6.53;;;1.67;;
68803;SDS011;55787;52.678;13.314;2023-07-24T04:40:01;6.25;;;1.40;;
68803;SDS011;55787;52.678;13.314;2023-07-24T04:42:28;7.07;;;1.37;;
68803;SDS011;55787;52.678;13.314;2023-07-24T04:44:54;6.78;;;1.15;;
68803;SDS011;55787;52.678;13.314;2023-07-24T04:47:21;6.72;;;1.30;;
68803;SDS011;55787;52.678;13.314;2023-07-24T04:49:48;6.13;;;1.33;;
68803;SDS011;55787;52.678;13.314;2023-07-24T04:52:14;5.88;;;1.30;;
68803;SDS011;55787;52.678;13.314;2023-07-24T04:54:41;6.43;;;1.63;;
68803;SDS011;55787;52.678;13.314;2023-07-24T04:57:08;6.28;;;1.42;;
68803;SDS011;55787;52.678;13.314;2023-07-24T04:59:35;7.35;;;1.73;;
68803;SDS011;55787;52.678;13.314;2023-07-24T05:02:01;9.07;;;2.03;;
68803;SDS011;55787;52.678;13.314;2023-07-24T05:04:28;7.95;;;2.03;;
68803;SDS011;55787;52.678;13.314;2023-07-24T05:06:55;7.93;;;1.80;;
68803;SDS011;55787;52.678;13.314;2023-07-24T05:09:21;9.88;;;2.35;;
68803;SDS011;55787;52.678;13.314;2023-07-24T05:11:48;8.10;;;2.20;;
68803;SDS011;55787;52.678;13.314;2023-07-24T05:14:15;11.55;;;2.80;;
68803;SDS011;55787;52.678;13.314;2023-07-24T05:16:41;8.20;;;2.25;;
68803;SDS011;55787;52.678;13.314;2023-07-24T05:19:08;10.10;;;2.23;;
68803;SDS011;55787;52.678;13.314;2023-07-24T05:21:35;8.27;;;2.28;;
68803;SDS011;55787;52.678;13.314;2023-07-24T05:24:02;8.45;;;2.50;;
68803;SDS011;55787;52.678;13.314;2023-07-24T05:26:28;7.25;;;2.10;;
68803;SDS011;55787;52.678;13.314;2023-07-24T05:28:55;7.80;;;2.00;;
68803;SDS011;55787;52.678;13.314;2023-07-24T05:31:22;7.27;;;1.80;;
68803;SDS011;55787;52.678;13.314;2023-07-24T05:33:49;7.60;;;1.90;;
68803;SDS011;55787;52.678;13.314;2023-07-24T05:36:15;7.57;;;1.55;;
68803;SDS011;55787;52.678;13.314;2023-07-24T05:38:42;7.00;;;1.63;;
68803;SDS011;55787;52.678;13.314;2023-07-24T05:41:09;6.28;;;1.50;;
68803;SDS011;55787;52.678;13.314;2023-07-24T05:43:35;5.77;;;1.20;;
68803;SDS011;55787;52.678;13.314;2023-07-24T05:46:02;5.85;;;1.10;;
68803;SDS011;55787;52.678;13.314;2023-07-24T05:48:30;6.32;;;1.10;;
68803;SDS011;55787;52.678;13.314;2023-07-24T05:50:56;6.03;;;1.27;;
68803;SDS011;55787;52.678;13.314;2023-07-24T05:53:23;5.28;;;1.10;;
68803;SDS011;55787;52.678;13.314;2023-07-24T05:59:07;5.00;;;0.82;;
68803;SDS011;55787;52.678;13.314;2023-07-24T06:01:33;5.28;;;1.00;;
68803;SDS011;55787;52.678;13.314;2023-07-24T06:04:00;5.60;;;1.15;;
68803;SDS011;55787;52.678;13.314;2023-07-24T06:06:27;5.03;;;0.80;;
68803;SDS011;55787;52.678;13.314;2023-07-24T06:08:55;4.60;;;0.70;;
68803;SDS011;55787;52.678;13.314;2023-07-24T06:11:21;5.00;;;0.80;;
68803;SDS011;55787;52.678;13.314;2023-07-24T06:13:49;4.90;;;0.95;;
68803;SDS011;55787;52.678;13.314;2023-07-24T06:16:16;5.10;;;1.02;;
68803;SDS011;55787;52.678;13.314;2023-07-24T06:18:42;5.20;;;0.93;;
68803;SDS011;55787;52.678;13.314;2023-07-24T06:21:09;4.63;;;1.00;;
68803;SDS011;55787;52.678;13.314;2023-07-24T06:23:36;4.65;;;1.00;;
68803;SDS011;55787;52.678;13.314;2023-07-24T06:26:02;5.53;;;1.60;;
68803;SDS011;55787;52.678;13.314;2023-07-24T06:28:29;4.60;;;0.88;;
68803;SDS011;55787;52.678;13.314;2023-07-24T06:30:56;5.35;;;1.23;;
68803;SDS011;55787;52.678;13.314;2023-07-24T06:33:22;5.40;;;1.20;;
68803;SDS011;55787;52.678;13.314;2023-07-24T06:35:49;6.78;;;1.30;;
68803;SDS011;55787;52.678;13.314;2023-07-24T06:38:17;5.63;;;1.30;;
68803;SDS011;55787;52.678;13.314;2023-07-24T06:40:43;4.97;;;1.15;;
68803;SDS011;55787;52.678;13.314;2023-07-24T06:43:10;4.93;;;1.40;;
68803;SDS011;55787;52.678;13.314;2023-07-24T06:45:37;5.20;;;1.60;;
68803;SDS011;55787;52.678;13.314;2023-07-24T06:48:03;4.70;;;1.20;;
68803;SDS011;55787;52.678;13.314;2023-07-24T06:50:30;5.20;;;1.55;;
68803;SDS011;55787;52.678;13.314;2023-07-24T06:52:57;5.15;;;1.50;;
68803;SDS011;55787;52.678;13.314;2023-07-24T06:55:24;6.00;;;1.80;;
68803;SDS011;55787;52.678;13.314;2023-07-24T06:57:50;5.40;;;1.73;;
68803;SDS011;55787;52.678;13.314;2023-07-24T07:00:18;5.35;;;1.77;;
68803;SDS011;55787;52.678;13.314;2023-07-24T07:02:45;5.57;;;1.67;;
68803;SDS011;55787;52.678;13.314;2023-07-24T07:05:12;5.25;;;1.70;;
68803;SDS011;55787;52.678;13.314;2023-07-24T07:07:38;5.03;;;1.60;;
68803;SDS011;55787;52.678;13.314;2023-07-24T07:10:06;5.20;;;1.43;;
68803;SDS011;55787;52.678;13.314;2023-07-24T07:12:33;5.30;;;1.60;;
68803;SDS011;55787;52.678;13.314;2023-07-24T07:14:59;5.40;;;2.10;;
68803;SDS011;55787;52.678;13.314;2023-07-24T07:17:26;5.10;;;1.58;;
68803;SDS011;55787;52.678;13.314;2023-07-24T07:19:53;6.28;;;1.50;;
68803;SDS011;55787;52.678;13.314;2023-07-24T07:22:22;5.30;;;1.60;;
68803;SDS011;55787;52.678;13.314;2023-07-24T07:24:49;5.15;;;1.60;;
68803;SDS011;55787;52.678;13.314;2023-07-24T07:27:15;5.50;;;2.08;;
68803;SDS011;55787;52.678;13.314;2023-07-24T07:29:45;4.95;;;1.70;;
68803;SDS011;55787;52.678;13.314;2023-07-24T07:32:12;5.72;;;2.15;;
68803;SDS011;55787;52.678;13.314;2023-07-24T07:34:39;5.57;;;2.00;;
68803;SDS011;55787;52.678;13.314;2023-07-24T07:37:06;5.13;;;1.75;;
68803;SDS011;55787;52.678;13.314;2023-07-24T07:39:33;5.78;;;2.30;;
68803;SDS011;55787;52.678;13.314;2023-07-24T07:41:59;6.10;;;2.35;;
68803;SDS011;55787;52.678;13.314;2023-07-24T07:44:42;5.20;;;1.70;;
68803;SDS011;55787;52.678;13.314;2023-07-24T07:47:09;5.93;;;1.60;;
68803;SDS011;55787;52.678;13.314;2023-07-24T07:49:35;4.78;;;1.40;;
68803;SDS011;55787;52.678;13.314;2023-07-24T07:52:02;5.13;;;1.70;;
68803;SDS011;55787;52.678;13.314;2023-07-24T07:54:29;5.10;;;1.40;;
68803;SDS011;55787;52.678;13.314;2023-07-24T07:56:56;5.10;;;1.45;;
68803;SDS011;55787;52.678;13.314;2023-07-24T07:59:22;5.23;;;1.30;;
68803;SDS011;55787;52.678;13.314;2023-07-24T08:01:49;5.35;;;1.58;;
68803;SDS011;55787;52.678;13.314;2023-07-24T08:04:16;5.65;;;1.40;;
68803;SDS011;55787;52.678;13.314;2023-07-24T08:06:44;5.28;;;1.70;;
68803;SDS011;55787;52.678;13.314;2023-07-24T08:09:11;5.05;;;1.52;;
68803;SDS011;55787;52.678;13.314;2023-07-24T08:11:38;5.57;;;1.70;;
68803;SDS011;55787;52.678;13.314;2023-07-24T08:14:05;5.22;;;1.50;;
68803;SDS011;55787;52.678;13.314;2023-07-24T08:16:31;5.43;;;1.27;;
68803;SDS011;55787;52.678;13.314;2023-07-24T08:18:59;5.18;;;1.35;;
68803;SDS011;55787;52.678;13.314;2023-07-24T08:21:25;4.90;;;1.15;;
68803;SDS011;55787;52.678;13.314;2023-07-24T08:23:52;4.97;;;1.20;;
68803;SDS011;55787;52.678;13.314;2023-07-24T08:26:19;5.15;;;1.60;;
68803;SDS011;55787;52.678;13.314;2023-07-24T08:28:45;5.03;;;1.52;;
68803;SDS011;55787;52.678;13.314;2023-07-24T08:31:12;6.32;;;1.33;;
68803;SDS011;55787;52.678;13.314;2023-07-24T08:33:39;4.63;;;1.20;;
68803;SDS011;55787;52.678;13.314;2023-07-24T08:36:06;5.10;;;1.20;;
68803;SDS011;55787;52.678;13.314;2023-07-24T08:38:34;5.20;;;1.33;;
68803;SDS011;55787;52.678;13.314;2023-07-24T08:41:02;4.90;;;1.30;;
68803;SDS011;55787;52.678;13.314;2023-07-24T08:43:30;4.82;;;0.95;;
68803;SDS011;55787;52.678;13.314;2023-07-24T08:45:58;5.20;;;0.90;;
68803;SDS011;55787;52.678;13.314;2023-07-24T08:48:30;4.80;;;1.10;;
68803;SDS011;55787;52.678;13.314;2023-07-24T08:51:03;5.13;;;1.45;;
68803;SDS011;55787;52.678;13.314;2023-07-24T08:53:32;5.05;;;1.20;;
68803;SDS011;55787;52.678;13.314;2023-07-24T08:56:03;4.65;;;1.17;;
68803;SDS011;55787;52.678;13.314;2023-07-24T08:58:30;5.05;;;1.50;;
68803;SDS011;55787;52.678;13.314;2023-07-24T09:00:57;4.97;;;1.30;;
68803;SDS011;55787;52.678;13.314;2023-07-24T09:03:24;4.85;;;1.35;;
68803;SDS011;55787;52.678;13.314;2023-07-24T09:05:52;5.45;;;1.83;;
68803;SDS011;55787;52.678;13.314;2023-07-24T09:08:31;5.32;;;1.50;;
68803;SDS011;55787;52.678;13.314;2023-07-24T09:11:03;5.03;;;1.48;;
68803;SDS011;55787;52.678;13.314;2023-07-24T09:13:30;4.90;;;1.40;;
68803;SDS011;55787;52.678;13.314;2023-07-24T09:15:58;5.47;;;1.83;;
68803;SDS011;55787;52.678;13.314;2023-07-24T09:18:25;5.90;;;1.92;;
68803;SDS011;55787;52.678;13.314;2023-07-24T09:20:52;5.50;;;1.83;;
68803;SDS011;55787;52.678;13.314;2023-07-24T09:23:25;5.82;;;2.22;;
68803;SDS011;55787;52.678;13.314;2023-07-24T09:25:54;5.20;;;1.80;;
68803;SDS011;55787;52.678;13.314;2023-07-24T09:28:21;5.55;;;2.00;;
68803;SDS011;55787;52.678;13.314;2023-07-24T09:30:54;5.40;;;1.70;;
68803;SDS011;55787;52.678;13.314;2023-07-24T09:33:23;5.70;;;1.95;;
68803;SDS011;55787;52.678;13.314;2023-07-24T09:36:10;5.97;;;1.95;;
68803;SDS011;55787;52.678;13.314;2023-07-24T09:38:37;5.50;;;1.60;;
68803;SDS011;55787;52.678;13.314;2023-07-24T09:41:05;6.00;;;1.67;;
68803;SDS011;55787;52.678;13.314;2023-07-24T09:43:32;5.22;;;1.60;;
68803;SDS011;55787;52.678;13.314;2023-07-24T09:46:07;5.60;;;1.70;;
68803;SDS011;55787;52.678;13.314;2023-07-24T09:48:36;5.50;;;1.73;;
68803;SDS011;55787;52.678;13.314;2023-07-24T09:51:06;5.27;;;1.60;;
68803;SDS011;55787;52.678;13.314;2023-07-24T09:53:38;4.85;;;1.40;;
68803;SDS011;55787;52.678;13.314;2023-07-24T09:56:09;5.57;;;1.67;;
68803;SDS011;55787;52.678;13.314;2023-07-24T09:58:37;5.00;;;1.40;;
68803;SDS011;55787;52.678;13.314;2023-07-24T10:01:06;5.65;;;1.92;;
68803;SDS011;55787;52.678;13.314;2023-07-24T10:03:39;5.23;;;1.80;;
68803;SDS011;55787;52.678;13.314;2023-07-24T10:06:14;5.20;;;1.70;;
68803;SDS011;55787;52.678;13.314;2023-07-24T10:08:42;5.50;;;2.13;;
68803;SDS011;55787;52.678;13.314;2023-07-24T10:11:11;5.75;;;2.30;;
68803;SDS011;55787;52.678;13.314;2023-07-24T10:13:38;5.75;;;1.90;;
68803;SDS011;55787;52.678;13.314;2023-07-24T10:16:08;6.57;;;2.10;;
68803;SDS011;55787;52.678;13.314;2023-07-24T10:18:41;6.05;;;2.10;;
68803;SDS011;55787;52.678;13.314;2023-07-24T10:21:11;5.80;;;2.42;;
68803;SDS011;55787;52.678;13.314;2023-07-24T10:23:42;5.75;;;2.42;;
68803;SDS011;55787;52.678;13.314;2023-07-24T10:26:13;6.10;;;2.40;;
68803;SDS011;55787;52.678;13.314;2023-07-24T10:28:42;5.43;;;2.07;;
68803;SDS011;55787;52.678;13.314;2023-07-24T10:31:19;6.30;;;2.33;;
68803;SDS011;55787;52.678;13.314;2023-07-24T10:33:48;5.95;;;2.50;;
68803;SDS011;55787;52.678;13.314;2023-07-24T10:36:19;6.47;;;2.20;;
68803;SDS011;55787;52.678;13.314;2023-07-24T10:38:51;5.70;;;2.30;;
68803;SDS011;55787;52.678;13.314;2023-07-24T10:41:19;8.17;;;2.10;;
68803;SDS011;55787;52.678;13.314;2023-07-24T10:43:47;6.25;;;2.20;;
68803;SDS011;55787;52.678;13.314;2023-07-24T10:46:19;6.38;;;2.00;;
68803;SDS011;55787;52.678;13.314;2023-07-24T10:48:47;6.00;;;2.03;;
68803;SDS011;55787;52.678;13.314;2023-07-24T10:51:15;6.25;;;1.73;;
68803;SDS011;55787;52.678;13.314;2023-07-24T10:53:46;6.27;;;1.63;;
68803;SDS011;55787;52.678;13.314;2023-07-24T10:56:14;5.70;;;1.75;;
68803;SDS011;55787;52.678;13.314;2023-07-24T10:58:42;6.00;;;1.70;;
68803;SDS011;55787;52.678;13.314;2023-07-24T11:14:45;7.03;;;1.92;;
68803;SDS011;55787;52.678;13.314;2023-07-24T11:17:15;5.95;;;1.60;;
68803;SDS011;55787;52.678;13.314;2023-07-24T11:19:42;5.97;;;1.55;;
68803;SDS011;55787;52.678;13.314;2023-07-24T11:22:09;6.07;;;1.60;;
68803;SDS011;55787;52.678;13.314;2023-07-24T11:24:42;6.40;;;1.70;;
68803;SDS011;55787;52.678;13.314;2023-07-24T11:27:14;6.85;;;1.80;;
68803;SDS011;55787;52.678;13.314;2023-07-24T11:29:46;6.50;;;1.90;;
68803;SDS011;55787;52.678;13.314;2023-07-24T11:32:20;7.10;;;1.90;;
68803;SDS011;55787;52.678;13.314;2023-07-24T11:34:48;6.60;;;1.87;;
68803;SDS011;55787;52.678;13.314;2023-07-24T11:37:16;6.40;;;1.80;;
68803;SDS011;55787;52.678;13.314;2023-07-24T11:39:58;6.50;;;1.75;;
68803;SDS011;55787;52.678;13.314;2023-07-24T11:42:26;6.53;;;1.95;;
68803;SDS011;55787;52.678;13.314;2023-07-24T11:44:53;6.35;;;1.95;;
68803;SDS011;55787;52.678;13.314;2023-07-24T11:47:20;6.83;;;1.80;;
68803;SDS011;55787;52.678;13.314;2023-07-24T11:50:00;6.35;;;1.90;;
68803;SDS011;55787;52.678;13.314;2023-07-24T11:52:38;6.93;;;1.95;;
68803;SDS011;55787;52.678;13.314;2023-07-24T11:55:12;7.45;;;1.80;;
68803;SDS011;55787;52.678;13.314;2023-07-24T11:57:42;6.75;;;1.80;;
68803;SDS011;55787;52.678;13.314;2023-07-24T12:00:20;8.40;;;1.90;;
68803;SDS011;55787;52.678;13.314;2023-07-24T12:02:47;7.45;;;2.00;;
68803;SDS011;55787;52.678;13.314;2023-07-24T12:05:14;7.10;;;2.22;;
68803;SDS011;55787;52.678;13.314;2023-07-24T12:07:42;8.55;;;2.13;;
68803;SDS011;55787;52.678;13.314;2023-07-24T12:10:11;7.90;;;2.15;;
68803;SDS011;55787;52.678;13.314;2023-07-24T12:15:09;9.02;;;2.10;;
68803;SDS011;55787;52.678;13.314;2023-07-24T12:17:36;10.55;;;2.20;;
68803;SDS011;55787;52.678;13.314;2023-07-24T12:20:04;7.32;;;1.90;;
68803;SDS011;55787;52.678;13.314;2023-07-24T12:22:32;7.13;;;1.80;;
68803;SDS011;55787;52.678;13.314;2023-07-24T12:24:59;7.57;;;1.77;;
68803;SDS011;55787;52.678;13.314;2023-07-24T12:27:25;9.38;;;2.33;;
68803;SDS011;55787;52.678;13.314;2023-07-24T12:29:52;8.60;;;2.10;;
68803;SDS011;55787;52.678;13.314;2023-07-24T12:32:19;8.88;;;1.75;;
68803;SDS011;55787;52.678;13.314;2023-07-24T12:34:46;7.13;;;1.90;;
68803;SDS011;55787;52.678;13.314;2023-07-24T12:37:13;7.17;;;2.00;;
68803;SDS011;55787;52.678;13.314;2023-07-24T12:39:40;7.75;;;2.25;;
68803;SDS011;55787;52.678;13.314;2023-07-24T12:42:07;7.65;;;2.03;;
68803;SDS011;55787;52.678;13.314;2023-07-24T12:44:34;6.75;;;2.08;;
68803;SDS011;55787;52.678;13.314;2023-07-24T12:47:00;6.38;;;1.70;;
68803;SDS011;55787;52.678;13.314;2023-07-24T12:49:27;6.47;;;1.70;;
68803;SDS011;55787;52.678;13.314;2023-07-24T12:51:54;6.38;;;1.63;;
68803;SDS011;55787;52.678;13.314;2023-07-24T12:54:21;6.18;;;1.90;;
68803;SDS011;55787;52.678;13.314;2023-07-24T12:57:08;6.45;;;1.90;;
68803;SDS011;55787;52.678;13.314;2023-07-24T12:59:35;6.85;;;2.00;;
68803;SDS011;55787;52.678;13.314;2023-07-24T13:02:02;5.93;;;1.90;;
68803;SDS011;55787;52.678;13.314;2023-07-24T13:04:28;5.65;;;1.75;;
68803;SDS011;55787;52.678;13.314;2023-07-24T13:06:55;6.60;;;2.05;;
68803;SDS011;55787;52.678;13.314;2023-07-24T13:09:22;5.72;;;1.55;;
68803;SDS011;55787;52.678;13.314;2023-07-24T13:11:50;5.88;;;1.83;;
68803;SDS011;55787;52.678;13.314;2023-07-24T13:14:17;5.47;;;1.50;;
68803;SDS011;55787;52.678;13.314;2023-07-24T13:16:44;6.50;;;2.08;;
68803;SDS011;55787;52.678;13.314;2023-07-24T13:19:11;6.82;;;1.90;;
68803;SDS011;55787;52.678;13.314;2023-07-24T13:21:38;5.78;;;1.70;;
68803;SDS011;55787;52.678;13.314;2023-07-24T13:24:06;6.07;;;1.88;;
68803;SDS011;55787;52.678;13.314;2023-07-24T13:26:33;6.37;;;1.63;;
68803;SDS011;55787;52.678;13.314;2023-07-24T13:29:00;5.60;;;1.55;;
68803;SDS011;55787;52.678;13.314;2023-07-24T13:31:26;6.30;;;2.00;;
68803;SDS011;55787;52.678;13.314;2023-07-24T13:33:55;6.25;;;1.80;;
68803;SDS011;55787;52.678;13.314;2023-07-24T13:36:22;5.72;;;1.70;;
68803;SDS011;55787;52.678;13.314;2023-07-24T13:38:49;6.70;;;1.60;;
68803;SDS011;55787;52.678;13.314;2023-07-24T13:41:16;5.40;;;1.50;;
68803;SDS011;55787;52.678;13.314;2023-07-24T13:43:43;5.47;;;1.60;;
68803;SDS011;55787;52.678;13.314;2023-07-24T13:46:10;6.43;;;1.48;;
68803;SDS011;55787;52.678;13.314;2023-07-24T13:48:36;6.18;;;1.88;;
68803;SDS011;55787;52.678;13.314;2023-07-24T13:51:03;6.00;;;1.40;;
68803;SDS011;55787;52.678;13.314;2023-07-24T13:53:29;6.00;;;1.67;;
68803;SDS011;55787;52.678;13.314;2023-07-24T13:55:56;6.60;;;1.80;;
68803;SDS011;55787;52.678;13.314;2023-07-24T13:58:23;6.05;;;1.92;;
68803;SDS011;55787;52.678;13.314;2023-07-24T14:00:49;5.70;;;1.33;;
68803;SDS011;55787;52.678;13.314;2023-07-24T14:03:16;5.80;;;1.40;;
68803;SDS011;55787;52.678;13.314;2023-07-24T14:05:43;5.82;;;1.58;;
68803;SDS011;55787;52.678;13.314;2023-07-24T14:08:10;5.38;;;1.38;;
68803;SDS011;55787;52.678;13.314;2023-07-24T14:10:38;5.80;;;1.30;;
68803;SDS011;55787;52.678;13.314;2023-07-24T14:13:04;5.80;;;1.60;;
68803;SDS011;55787;52.678;13.314;2023-07-24T14:15:31;5.87;;;1.30;;
68803;SDS011;55787;52.678;13.314;2023-07-24T14:17:57;5.35;;;1.30;;
68803;SDS011;55787;52.678;13.314;2023-07-24T14:20:24;5.80;;;1.60;;
68803;SDS011;55787;52.678;13.314;2023-07-24T14:22:51;5.43;;;1.40;;
68803;SDS011;55787;52.678;13.314;2023-07-24T14:25:17;5.45;;;1.33;;
68803;SDS011;55787;52.678;13.314;2023-07-24T14:27:44;6.50;;;1.33;;
68803;SDS011;55787;52.678;13.314;2023-07-24T14:30:11;5.70;;;1.60;;
68803;SDS011;55787;52.678;13.314;2023-07-24T14:32:38;5.45;;;1.60;;
68803;SDS011;55787;52.678;13.314;2023-07-24T14:35:04;5.57;;;1.40;;
68803;SDS011;55787;52.678;13.314;2023-07-24T14:37:31;5.50;;;1.33;;
68803;SDS011;55787;52.678;13.314;2023-07-24T14:39:58;6.53;;;1.30;;
68803;SDS011;55787;52.678;13.314;2023-07-24T14:42:25;5.25;;;1.10;;
68803;SDS011;55787;52.678;13.314;2023-07-24T14:44:51;5.63;;;1.38;;
68803;SDS011;55787;52.678;13.314;2023-07-24T14:47:18;8.25;;;1.30;;
68803;SDS011;55787;52.678;13.314;2023-07-24T14:49:45;5.95;;;1.60;;
68803;SDS011;55787;52.678;13.314;2023-07-24T14:52:11;5.33;;;1.30;;
68803;SDS011;55787;52.678;13.314;2023-07-24T14:54:38;5.68;;;1.40;;
68803;SDS011;55787;52.678;13.314;2023-07-24T14:57:05;5.78;;;1.60;;